Aérodrome :
LOGIN :

S'inscrire | Disclaimer

   EN    FR    IT 

 










Légende :    VFR   VFR Marginal   IFR   IFR Intensif   IFR Très Intensif
Visi : 
Plafond : 
>= 8 km
>= 3000ft
5 à 8 km
1000 à 3000 ft
1500m à 5 km
500 à 1000 ft
800 à 1500m
200 à 500 ft
< 800m
< 200 ft
Symboles :   Orages  Brouillard  Fortes neiges  Fortes précipitations  Vent > 20 kt
SIGMETs :   Divers  Orages  Givrage  Turbulence  Onde Orograph.  Cendres Volcan.







- Altitude de l'aérodrome : 935 ft


EBFS - Florennes

DERNIER METAR :
  • 230655Z 19018G28KT 9999 FEW090 SCT160 BKN220 11/04 Q1000 BLU BLU

METARs EXPIRÉS :
  • 230625Z 19017G28KT 9999 FEW100 SCT220 11/04 Q1000 BLU BLU
  • 230555Z 19019G33KT 9999 SCT090 BKN130 11/03 Q1000 BLU BLU
  • 230525Z 19019KT 9999 SCT090 BKN130 11/03 Q1000 BLU BLU
  • 230524Z 19018KT 9999 SCT090 BKN130 11/03 Q1000 BLU BLU
  • 230455Z 19016KT 9999 SCT090 BKN130 11/03 Q1000 BLU
  • 230425Z 18017KT 9999 SCT090 BKN130 11/03 Q1000 BLU

TAF AMD TAF EBFS
Valide du 23 à 07h jusqu'au 23 à 16h UTC


230600Z 2307/2316 20020G35KT 9999 SCT090 BKN130
BECMG 2309/2311 SCT020 BKN050
TEMPO 2309/2312 7000 -SHRA
BECMG 2314/2316 25010G20KT 9999 SCT015 BKN030
TEMPO 2314/2316 5000 SHRA SCT010 BKN020
Pas de NOTAMs connus pour ce terrain.
3 SIGMETs publiés pour la FIR Brussels (EBBU) :
 
Annulation du SIGMET 04
EBBU SIGMET 05 VALID 230719/231119 EBBR
EBBU BRUSSELS FIR CNL SIGMET 04 VALID 230700/231000=
Turbulence forte
EBBU SIGMET 03 VALID 230300/230700 EBBR
EBBU BRUSSELS FIR SEV TURB FCST W OF E005 SFC/FL050 MOV NE 15KT NC=
Annulation du SIGMET 01
EBBU SIGMET 02 VALID 230300/230700 EBBR
EBBU BRUSSELS FIR CNL SIGMET 01 VALID 230300/230700=



MET'MAP, la Météo Aéronautique d'un coup d'oeil ! - Copyright ORBIFLY Décembre 2007 - Disclaimer

ORBIFLY MET'MAP TEAM :

Programmation & Développement : Alexandra Zaïnal
Conception & Développement : Baudouin d'Aumeries
Co-Programmation & Développement : Marc-Olivier Méhu
Soutien technique & logistique : Manuel Goepfert

Contact : metmap@orbifly.com




SOURCES & CREDITS :

   NOAA